Time;durP1;ratioP1;P1;durP2;ratioP2;P2;SDS_P1;SDS_P2;PMS_P1;PMS_P2;Temp;Humidity;BMP_temperature;BMP_pressure;BME280_temperature;BME280_humidity;BME280_pressure;Samples;Min_cycle;Max_cycle;Signal;HPM_P1;HPM_P2
2021/04/13 00:00:01;;;;;;;5.30;1.90;;;6.10;99.90;;;;;;1852197;76;21604;-73
2021/04/13 00:02:31;;;;;;;9.13;1.70;;;6.30;99.90;;;;;;1849917;76;21637;-73
2021/04/13 00:05:02;;;;;;;6.53;2.00;;;6.20;99.90;;;;;;1852812;76;21097;-74
2021/04/13 00:07:31;;;;;;;5.95;1.47;;;6.20;99.90;;;;;;1851211;76;21117;-74
2021/04/13 00:10:01;;;;;;;7.20;1.65;;;6.30;99.90;;;;;;1848377;76;21538;-73
2021/04/13 00:12:31;;;;;;;7.87;1.82;;;6.20;99.90;;;;;;1848268;76;21171;-73
2021/04/13 00:15:08;;;;;;;7.42;2.00;;;6.20;99.90;;;;;;1849910;76;21072;-73
2021/04/13 00:17:36;;;;;;;5.22;2.12;;;6.00;99.90;;;;;;1849991;76;21210;-73
2021/04/13 00:20:34;;;;;;;5.47;2.20;;;6.00;99.90;;;;;;1855379;76;21579;-73
2021/04/13 00:23:01;;;;;;;6.47;1.90;;;6.00;99.90;;;;;;1845013;76;21061;-73
2021/04/13 00:25:38;;;;;;;10.93;1.87;;;6.00;99.90;;;;;;1854321;76;21044;-74
2021/04/13 00:28:08;;;;;;;7.40;1.87;;;6.20;99.90;;;;;;1853778;76;21193;-74
2021/04/13 00:30:48;;;;;;;8.20;2.15;;;6.10;99.90;;;;;;1849055;76;21115;-74
2021/04/13 00:33:21;;;;;;;5.10;1.70;;;6.20;99.90;;;;;;1856225;76;21090;-73
2021/04/13 00:36:08;;;;;;;5.42;1.60;;;6.30;99.90;;;;;;1852675;76;21128;-73
2021/04/13 00:38:33;;;;;;;9.58;1.80;;;6.30;99.90;;;;;;1850904;76;21191;-74
2021/04/13 00:41:03;;;;;;;8.03;2.05;;;6.20;99.90;;;;;;1852996;76;21228;-74
2021/04/13 00:43:31;;;;;;;14.10;1.65;;;6.20;99.90;;;;;;1849092;76;21103;-73
2021/04/13 00:46:00;;;;;;;5.80;1.82;;;6.20;99.90;;;;;;1846857;76;21696;-73
2021/04/13 00:48:34;;;;;;;6.67;2.05;;;6.40;99.90;;;;;;1847805;76;21093;-73
2021/04/13 00:51:04;;;;;;;5.42;1.75;;;6.50;99.90;;;;;;1847932;76;21178;-73
2021/04/13 00:53:35;;;;;;;8.65;2.42;;;6.40;99.90;;;;;;1843992;76;21460;-75
2021/04/13 00:56:06;;;;;;;11.97;2.20;;;6.30;99.90;;;;;;1848824;76;21074;-73
2021/04/13 00:58:39;;;;;;;5.87;1.60;;;6.20;99.90;;;;;;1846607;76;21579;-73
2021/04/13 01:01:18;;;;;;;5.05;1.70;;;6.20;99.90;;;;;;1856710;76;21112;-74
2021/04/13 01:03:52;;;;;;;11.35;1.77;;;6.20;99.90;;;;;;1849823;76;21065;-73
2021/04/13 01:06:25;;;;;;;7.80;2.37;;;6.30;99.90;;;;;;1855360;76;21183;-72
2021/04/13 01:09:02;;;;;;;5.42;1.67;;;6.10;99.90;;;;;;1851670;76;21144;-72
2021/04/13 01:11:32;;;;;;;10.43;2.40;;;6.00;99.90;;;;;;1850899;76;21531;-72
2021/04/13 01:14:02;;;;;;;5.72;1.80;;;6.00;99.90;;;;;;1847340;76;21497;-72
2021/04/13 01:16:33;;;;;;;7.78;1.67;;;6.20;99.90;;;;;;1849355;76;21216;-72
2021/04/13 01:19:06;;;;;;;6.62;1.92;;;6.20;99.90;;;;;;1848223;76;21171;-72
2021/04/13 01:21:46;;;;;;;6.25;1.70;;;6.10;99.90;;;;;;1857896;76;21131;-72
2021/04/13 01:24:28;;;;;;;5.08;1.80;;;6.20;99.90;;;;;;1848984;76;21132;-73
2021/04/13 01:26:52;;;;;;;5.42;1.67;;;6.10;99.90;;;;;;1848694;76;21037;-73
2021/04/13 01:29:25;;;;;;;10.48;2.02;;;6.20;99.90;;;;;;1853853;76;21148;-73
2021/04/13 01:31:57;;;;;;;7.90;2.02;;;6.30;99.90;;;;;;1855047;76;21148;-73
2021/04/13 01:34:32;;;;;;;4.93;1.90;;;6.30;99.90;;;;;;1855930;76;21132;-73
2021/04/13 01:37:03;;;;;;;;;;;6.30;99.90;;;;;;1852822;76;21652;-73
2021/04/13 01:39:34;;;;;;;5.58;1.45;;;6.30;99.90;;;;;;1858668;76;20250;-73
2021/04/13 01:42:02;;;;;;;8.33;1.90;;;6.30;99.90;;;;;;1848717;76;21214;-73
2021/04/13 01:44:38;;;;;;;7.78;2.00;;;6.30;99.90;;;;;;1849766;76;21089;-73
2021/04/13 01:47:09;;;;;;;8.18;2.20;;;6.30;99.90;;;;;;1850420;76;21073;-73
2021/04/13 01:49:53;;;;;;;6.65;2.00;;;6.30;99.90;;;;;;1847612;76;22629;-73
2021/04/13 01:52:30;;;;;;;6.00;1.62;;;6.40;99.90;;;;;;1850826;76;21645;-73
2021/04/13 01:55:02;;;;;;;7.83;1.90;;;6.40;99.90;;;;;;1847805;76;21647;-73
2021/04/13 01:57:36;;;;;;;6.75;1.75;;;6.30;99.90;;;;;;1855245;76;21129;-73
2021/04/13 02:00:12;;;;;;;8.55;2.12;;;6.30;99.90;;;;;;1855373;76;21280;-73
2021/04/13 02:02:48;;;;;;;6.05;1.62;;;6.40;99.90;;;;;;1850183;76;21112;-73
2021/04/13 02:05:19;;;;;;;9.38;2.25;;;6.40;99.90;;;;;;1852658;76;21112;-73
2021/04/13 02:08:02;;;;;;;8.80;2.02;;;6.20;99.90;;;;;;1855533;76;21281;-72
2021/04/13 02:10:37;;;;;;;12.95;2.52;;;6.20;99.90;;;;;;1852400;76;21160;-73
2021/04/13 02:13:09;;;;;;;8.70;1.70;;;5.90;99.90;;;;;;1852487;76;21496;-73
2021/04/13 02:15:42;;;;;;;9.43;1.82;;;5.90;99.90;;;;;;1849189;76;21124;-73
2021/04/13 02:18:18;;;;;;;6.55;2.05;;;6.00;99.90;;;;;;1851626;76;21184;-74
2021/04/13 02:20:48;;;;;;;6.97;1.92;;;6.00;99.90;;;;;;1853285;76;21708;-74
2021/04/13 02:23:28;;;;;;;7.90;2.02;;;6.00;99.90;;;;;;1846117;76;21598;-73
2021/04/13 02:25:58;;;;;;;6.47;1.80;;;5.90;99.90;;;;;;1826830;77;21562;-74
2021/04/13 02:28:27;;;;;;;5.45;1.65;;;5.90;99.90;;;;;;1852969;76;21179;-74
2021/04/13 02:30:56;;;;;;;8.00;2.00;;;5.70;99.90;;;;;;1848817;76;21275;-74
2021/04/13 02:33:35;;;;;;;5.92;1.65;;;5.80;99.90;;;;;;1852777;76;21104;-74
2021/04/13 02:36:18;;;;;;;7.33;2.08;;;5.70;99.90;;;;;;1854610;76;21215;-74
2021/04/13 02:38:51;;;;;;;9.25;2.20;;;5.70;99.90;;;;;;1854081;76;21202;-74
2021/04/13 02:41:25;;;;;;;6.42;2.15;;;5.70;99.90;;;;;;1849476;76;21135;-74
2021/04/13 02:43:54;;;;;;;9.05;2.10;;;5.70;99.90;;;;;;1855231;76;21661;-73
2021/04/13 02:46:30;;;;;;;11.65;2.15;;;5.70;99.90;;;;;;1857669;76;21638;-74
2021/04/13 02:49:09;;;;;;;11.08;2.10;;;5.70;99.90;;;;;;1856791;76;21152;-73
2021/04/13 02:51:52;;;;;;;6.17;1.90;;;5.80;99.90;;;;;;1852326;74;21120;-74
2021/04/13 02:54:32;;;;;;;10.00;2.58;;;6.00;99.90;;;;;;1849560;76;21096;-72
2021/04/13 02:57:03;;;;;;;8.98;2.17;;;6.00;99.90;;;;;;1850364;76;21145;-72
2021/04/13 02:59:33;;;;;;;5.83;2.33;;;6.10;99.90;;;;;;1821072;77;22132;-72
2021/04/13 03:02:22;;;;;;;9.60;2.67;;;6.00;99.90;;;;;;1854856;76;21107;-72
2021/04/13 03:04:51;;;;;;;9.20;2.02;;;6.20;99.90;;;;;;1854133;76;21069;-72
2021/04/13 03:07:24;;;;;;;12.50;2.30;;;6.10;99.90;;;;;;1849222;76;21230;-72
2021/04/13 03:09:55;;;;;;;8.10;2.30;;;6.20;99.90;;;;;;1851575;76;21120;-72
2021/04/13 03:12:23;;;;;;;7.10;2.30;;;6.30;99.90;;;;;;1852257;76;21116;-72
2021/04/13 03:14:53;;;;;;;10.75;2.33;;;6.30;99.90;;;;;;1850054;76;21084;-72
2021/04/13 03:17:24;;;;;;;10.18;2.92;;;6.30;99.90;;;;;;1855406;76;21676;-72
2021/04/13 03:19:55;;;;;;;10.10;2.30;;;6.20;99.90;;;;;;1851266;76;21139;-72
2021/04/13 03:22:23;;;;;;;12.68;2.55;;;6.10;99.90;;;;;;1853276;76;21124;-72
2021/04/13 03:24:52;;;;;;;10.72;2.52;;;6.00;99.90;;;;;;1850409;76;21057;-71
2021/04/13 03:27:23;;;;;;;10.40;2.37;;;6.00;99.90;;;;;;1851612;76;21575;-72
2021/04/13 03:29:54;;;;;;;8.98;2.40;;;5.90;99.90;;;;;;1857390;76;21109;-72
2021/04/13 03:32:24;;;;;;;8.50;1.82;;;5.80;99.90;;;;;;1846854;76;21210;-72
2021/04/13 03:34:51;;;;;;;10.55;2.15;;;5.90;99.90;;;;;;1848498;76;21117;-72
2021/04/13 03:37:19;;;;;;;6.85;2.10;;;6.00;99.90;;;;;;1850835;76;21210;-72
2021/04/13 03:39:48;;;;;;;9.60;2.35;;;6.10;99.90;;;;;;1850537;76;21776;-71
2021/04/13 03:42:19;;;;;;;11.63;2.40;;;6.20;99.90;;;;;;1855684;76;21081;-72
2021/04/13 03:44:47;;;;;;;8.78;2.37;;;6.10;99.90;;;;;;1855757;76;21159;-72
2021/04/13 03:47:24;;;;;;;14.15;2.45;;;6.00;99.90;;;;;;1848071;76;21562;-73
2021/04/13 03:49:53;;;;;;;11.53;2.58;;;6.00;99.90;;;;;;1848164;76;21105;-74
2021/04/13 03:52:26;;;;;;;10.65;2.05;;;6.10;99.90;;;;;;1849453;76;21774;-75
2021/04/13 03:54:54;;;;;;;10.65;2.40;;;6.10;99.90;;;;;;1850497;76;21546;-74
2021/04/13 03:57:33;;;;;;;7.20;1.82;;;5.90;99.90;;;;;;1853650;76;21210;-73
2021/04/13 04:00:03;;;;;;;8.95;2.17;;;5.70;99.90;;;;;;1851582;76;21644;-73
2021/04/13 04:02:32;;;;;;;10.18;2.72;;;5.70;99.90;;;;;;1856337;76;21186;-73
2021/04/13 04:05:11;;;;;;;10.15;2.62;;;5.70;99.90;;;;;;1853159;76;21554;-73
2021/04/13 04:07:51;;;;;;;9.00;2.42;;;5.80;99.90;;;;;;1851324;76;21517;-74
2021/04/13 04:10:34;;;;;;;10.82;2.67;;;5.80;99.90;;;;;;1846617;76;21132;-73
2021/04/13 04:13:08;;;;;;;7.15;2.65;;;6.00;99.90;;;;;;1854788;76;21159;-73
2021/04/13 04:15:44;;;;;;;11.85;2.33;;;6.10;99.90;;;;;;1850776;76;21120;-72
2021/04/13 04:18:21;;;;;;;10.53;2.30;;;6.10;99.90;;;;;;1858168;76;21117;-72
2021/04/13 04:20:48;;;;;;;10.50;2.35;;;6.00;99.90;;;;;;1845804;76;21523;-72
2021/04/13 04:23:18;;;;;;;7.53;2.20;;;6.00;99.90;;;;;;1850352;76;21097;-72
2021/04/13 04:25:49;;;;;;;8.03;2.17;;;6.00;99.90;;;;;;1856402;76;21127;-72
2021/04/13 04:28:25;;;;;;;9.50;2.45;;;6.10;99.90;;;;;;1855440;76;21227;-73
2021/04/13 04:30:52;;;;;;;13.35;2.52;;;5.90;99.90;;;;;;1849057;76;21124;-73
2021/04/13 04:33:40;;;;;;;5.72;2.12;;;6.00;99.90;;;;;;1852315;76;21193;-73
2021/04/13 04:36:31;;;;;;;10.78;2.00;;;6.10;99.90;;;;;;1852073;76;21178;-73
2021/04/13 04:39:33;;;;;;;12.45;2.62;;;6.20;99.90;;;;;;1880662;73;21672;-69
2021/04/13 04:42:10;;;;;;;12.58;2.62;;;6.10;99.90;;;;;;1887082;74;21141;-68
2021/04/13 04:44:35;;;;;;;7.37;2.00;;;5.90;99.90;;;;;;1885823;74;21128;-68
2021/04/13 04:47:04;;;;;;;6.17;1.82;;;6.00;99.90;;;;;;1893002;74;21097;-68
2021/04/13 04:49:40;;;;;;;10.72;2.40;;;6.00;99.90;;;;;;1884367;74;21176;-69
2021/04/13 04:52:08;;;;;;;10.68;2.35;;;6.00;99.90;;;;;;1892382;74;21187;-69
2021/04/13 04:54:36;;;;;;;6.35;1.87;;;6.00;99.90;;;;;;1898018;74;21122;-69
2021/04/13 04:57:04;;;;;;;3.72;2.08;;;5.80;99.90;;;;;;1887100;74;22138;-69
2021/04/13 04:59:31;;;;;;;10.28;2.05;;;5.80;99.90;;;;;;1864010;75;21147;-69
2021/04/13 05:01:59;;;;;;;9.40;2.10;;;5.90;99.90;;;;;;1853053;76;21101;-69
2021/04/13 05:04:26;;;;;;;7.67;2.12;;;6.00;99.90;;;;;;1856402;75;21045;-69
2021/04/13 05:06:54;;;;;;;11.50;2.80;;;5.90;99.90;;;;;;1887489;75;21171;-70
2021/04/13 05:09:21;;;;;;;7.35;1.92;;;6.00;99.90;;;;;;1852041;75;21115;-70
2021/04/13 05:11:49;;;;;;;11.25;2.60;;;6.00;99.90;;;;;;1854244;76;21077;-70
2021/04/13 05:14:16;;;;;;;11.03;2.60;;;6.00;99.90;;;;;;1855610;75;21141;-70
2021/04/13 05:16:44;;;;;;;8.23;2.20;;;6.10;99.90;;;;;;1859698;75;21520;-70
2021/04/13 05:19:11;;;;;;;9.15;2.20;;;5.90;99.90;;;;;;1890477;74;21140;-69
2021/04/13 05:21:39;;;;;;;8.60;2.25;;;5.70;99.90;;;;;;1855481;76;21190;-67
2021/04/13 05:24:09;;;;;;;8.13;2.30;;;5.80;99.90;;;;;;1859290;75;21184;-70
2021/04/13 05:26:36;;;;;;;9.53;2.50;;;5.90;99.90;;;;;;1891549;74;21074;-67
2021/04/13 05:29:05;;;;;;;10.35;2.70;;;5.90;99.90;;;;;;1888638;74;21533;-66
2021/04/13 05:31:32;;;;;;;10.45;2.95;;;6.00;99.90;;;;;;1889144;74;21105;-70
2021/04/13 05:34:00;;;;;;;10.65;2.45;;;6.10;99.90;;;;;;1863818;75;21006;-69
2021/04/13 05:36:28;;;;;;;10.93;2.80;;;6.10;99.90;;;;;;1893556;74;21097;-69
2021/04/13 05:38:56;;;;;;;7.53;2.60;;;6.00;99.90;;;;;;1896214;74;21058;-69
2021/04/13 05:41:23;;;;;;;11.25;2.90;;;6.10;99.90;;;;;;1890146;75;21061;-69
2021/04/13 05:43:51;;;;;;;10.48;2.90;;;6.10;99.90;;;;;;1884477;74;21466;-69
2021/04/13 05:46:22;;;;;;;7.95;2.40;;;6.20;99.90;;;;;;1891873;75;21585;-76
2021/04/13 05:48:50;;;;;;;15.43;3.15;;;6.30;99.90;;;;;;1854301;76;21289;-67
2021/04/13 05:51:17;;;;;;;11.40;2.75;;;6.30;99.90;;;;;;1889968;74;21607;-67
2021/04/13 05:53:46;;;;;;;15.50;3.08;;;6.40;99.90;;;;;;1892964;74;21106;-66
2021/04/13 05:56:16;;;;;;;11.78;2.92;;;6.40;99.90;;;;;;1857578;77;21100;-67
2021/04/13 05:58:51;;;;;;;8.10;2.45;;;6.30;99.90;;;;;;1855006;75;21219;-67
2021/04/13 06:01:21;;;;;;;11.05;2.72;;;6.30;99.90;;;;;;1887686;75;21105;-67
2021/04/13 06:03:48;;;;;;;8.23;2.70;;;6.30;99.90;;;;;;1856562;75;21121;-71
2021/04/13 06:06:16;;;;;;;9.93;2.35;;;6.30;99.90;;;;;;1889210;74;21559;-67
2021/04/13 06:08:45;;;;;;;9.05;2.70;;;6.30;99.90;;;;;;1853155;75;21120;-67
2021/04/13 06:11:19;;;;;;;11.20;2.37;;;6.30;99.90;;;;;;1874346;75;21065;-67
2021/04/13 06:13:49;;;;;;;14.45;2.92;;;6.30;99.90;;;;;;1883110;74;21190;-67
2021/04/13 06:16:19;;;;;;;10.20;2.30;;;6.30;99.90;;;;;;1889459;74;21101;-67
2021/04/13 06:18:46;;;;;;;11.93;2.10;;;6.40;99.90;;;;;;1892143;75;21444;-67
2021/04/13 06:21:13;;;;;;;11.63;2.27;;;6.40;99.90;;;;;;1890370;74;21042;-67
2021/04/13 06:23:41;;;;;;;9.55;2.12;;;6.30;99.90;;;;;;1858052;75;21073;-65
2021/04/13 06:26:08;;;;;;;10.10;2.20;;;6.40;99.90;;;;;;1871279;75;21129;-64
2021/04/13 06:28:36;;;;;;;12.23;2.72;;;6.60;99.90;;;;;;1856201;75;21238;-64
2021/04/13 06:31:04;;;;;;;11.68;2.65;;;6.60;99.90;;;;;;1885724;74;21123;-65
2021/04/13 06:33:32;;;;;;;11.33;2.83;;;6.60;99.90;;;;;;1887101;74;21130;-66
2021/04/13 06:36:02;;;;;;;9.90;2.37;;;6.60;99.90;;;;;;1886567;74;21147;-68
2021/04/13 06:38:31;;;;;;;10.55;2.33;;;6.80;99.90;;;;;;1885530;74;21143;-67
2021/04/13 06:41:23;;;;;;;12.50;2.25;;;6.80;99.90;;;;;;1893549;74;21104;-69
2021/04/13 06:44:05;;;;;;;10.35;2.72;;;6.90;99.90;;;;;;1898117;74;21600;-64
2021/04/13 06:46:39;;;;;;;10.72;2.87;;;6.80;99.90;;;;;;1892047;74;21178;-67
2021/04/13 06:49:13;;;;;;;8.93;2.60;;;6.90;99.90;;;;;;1891447;74;22186;-64
2021/04/13 06:52:12;;;;;;;10.55;2.05;;;7.00;99.90;;;;;;1881942;74;21093;-68
2021/04/13 06:54:45;;;;;;;11.50;2.60;;;7.10;99.90;;;;;;1860826;75;21160;-68
2021/04/13 06:57:28;;;;;;;15.63;2.35;;;7.20;99.90;;;;;;1891560;74;21569;-65
2021/04/13 06:59:59;;;;;;;;;;;7.30;99.90;;;;;;1892233;74;21589;-66
2021/04/13 07:03:03;;;;;;;12.80;3.00;;;7.40;99.90;;;;;;1855612;75;20173;-65
2021/04/13 07:05:33;;;;;;;15.08;2.45;;;7.50;99.90;;;;;;1849955;75;21179;-64
2021/04/13 07:08:10;;;;;;;15.98;3.02;;;7.50;99.90;;;;;;1891402;74;21606;-65
2021/04/13 07:10:44;;;;;;;17.45;2.75;;;7.60;99.90;;;;;;1845048;75;21148;-66
2021/04/13 07:13:11;;;;;;;;;;;7.70;99.90;;;;;;1852384;76;21202;-68
2021/04/13 07:15:41;;;;;;;15.70;2.85;;;7.80;99.90;;;;;;1858201;75;20225;-68
2021/04/13 07:18:47;;;;;;;24.20;3.67;;;7.80;99.90;;;;;;1851017;75;21164;-68
2021/04/13 07:21:29;;;;;;;15.43;3.55;;;7.70;99.90;;;;;;1887896;74;21137;-68
2021/04/13 07:24:03;;;;;;;13.78;2.95;;;7.90;99.90;;;;;;1857976;75;21125;-68
2021/04/13 07:26:45;;;;;;;13.65;3.40;;;8.00;99.90;;;;;;1844512;75;21184;-68
2021/04/13 07:29:34;;;;;;;13.95;3.27;;;8.10;99.90;;;;;;1852985;76;21137;-68
2021/04/13 07:32:07;;;;;;;13.90;2.70;;;8.10;99.90;;;;;;1858170;75;21194;-68
2021/04/13 07:34:37;;;;;;;20.40;5.97;;;8.30;99.90;;;;;;1887293;74;21552;-68
2021/04/13 07:37:08;;;;;;;19.52;3.70;;;8.40;99.90;;;;;;1890105;75;22233;-67
2021/04/13 07:39:36;;;;;;;16.73;3.65;;;8.50;99.90;;;;;;1886654;74;21215;-68
2021/04/13 07:42:10;;;;;;;12.00;2.72;;;8.50;99.90;;;;;;1887995;75;21506;-67
2021/04/13 07:45:05;;;;;;;13.38;2.83;;;8.60;99.90;;;;;;1886831;74;21105;-68
2021/04/13 07:47:54;;;;;;;9.75;2.33;;;8.70;99.90;;;;;;1885026;75;21047;-68
2021/04/13 07:50:27;;;;;;;13.25;2.62;;;8.70;99.90;;;;;;1883828;74;21123;-69
2021/04/13 07:53:04;;;;;;;12.18;2.30;;;8.70;99.90;;;;;;1890879;74;21063;-67
2021/04/13 07:55:37;;;;;;;10.70;2.77;;;8.80;99.90;;;;;;1892862;74;21054;-66
2021/04/13 07:58:27;;;;;;;23.20;4.03;;;8.90;99.90;;;;;;1889721;74;21634;-67
2021/04/13 08:00:55;;;;;;;17.02;3.62;;;8.90;99.90;;;;;;1885597;75;21555;-67
2021/04/13 08:03:32;;;;;;;18.23;4.33;;;8.90;99.90;;;;;;1892633;74;21228;-68
2021/04/13 08:06:02;;;;;;;16.15;3.87;;;9.00;99.90;;;;;;1888318;74;21128;-68
2021/04/13 08:08:39;;;;;;;23.55;4.67;;;9.10;99.90;;;;;;1887744;75;21136;-68
2021/04/13 08:11:16;;;;;;;18.15;4.72;;;9.10;99.90;;;;;;1887909;75;21379;-67
2021/04/13 08:13:47;;;;;;;20.23;4.75;;;9.10;99.90;;;;;;1882151;75;21074;-70
2021/04/13 08:16:37;;;;;;;15.78;3.80;;;9.30;99.90;;;;;;1888001;75;21077;-67
2021/04/13 08:19:32;;;;;;;18.35;3.83;;;9.40;99.90;;;;;;1885933;75;21144;-67
2021/04/13 08:22:08;;;;;;;13.90;3.77;;;9.40;99.90;;;;;;1874302;74;21136;-68
2021/04/13 08:24:47;;;;;;;12.43;3.45;;;9.30;99.90;;;;;;1858232;75;21189;-67
2021/04/13 08:27:26;;;;;;;12.43;2.75;;;9.20;99.90;;;;;;1885574;74;21517;-67
2021/04/13 08:30:20;;;;;;;11.85;3.00;;;9.10;99.90;;;;;;1858668;75;21605;-67
2021/04/13 08:33:01;;;;;;;13.72;3.47;;;9.20;99.90;;;;;;1891338;74;21137;-70
2021/04/13 08:35:37;;;;;;;12.68;2.95;;;9.30;99.90;;;;;;1889580;75;22245;-70
2021/04/13 08:38:23;;;;;;;9.60;2.42;;;9.20;99.90;;;;;;1887490;75;21526;-66
2021/04/13 08:41:13;;;;;;;12.05;2.33;;;9.20;99.90;;;;;;1883531;75;21131;-70
2021/04/13 08:43:44;;;;;;;16.67;2.87;;;9.40;99.90;;;;;;1885367;75;22224;-69
2021/04/13 08:46:33;;;;;;;9.05;2.25;;;9.40;99.90;;;;;;1893388;74;22685;-69
2021/04/13 08:49:17;;;;;;;9.88;2.08;;;9.40;99.90;;;;;;1886384;74;21136;-69
2021/04/13 08:51:47;;;;;;;14.20;2.15;;;9.60;99.90;;;;;;1851733;75;22237;-69
2021/04/13 08:54:29;;;;;;;13.98;2.52;;;9.70;99.90;;;;;;1895077;74;21555;-69
2021/04/13 08:56:56;;;;;;;11.90;2.87;;;9.80;99.90;;;;;;1889341;74;21634;-71
2021/04/13 08:59:52;;;;;;;16.57;3.42;;;9.90;99.90;;;;;;1893095;75;21140;-68
2021/04/13 09:02:34;;;;;;;15.70;3.22;;;10.00;99.90;;;;;;1890177;74;21684;-69
2021/04/13 09:05:13;;;;;;;12.98;3.27;;;10.10;99.90;;;;;;1889590;74;21057;-69
2021/04/13 09:08:19;;;;;;;13.03;2.92;;;10.10;99.90;;;;;;1890040;74;21213;-68
2021/04/13 09:11:01;;;;;;;10.43;2.60;;;10.10;99.90;;;;;;1883697;75;21521;-69
2021/04/13 09:13:32;;;;;;;15.28;2.30;;;10.10;99.90;;;;;;1882496;74;21131;-68
2021/04/13 09:16:11;;;;;;;7.75;1.75;;;10.20;99.90;;;;;;1884876;74;21172;-69
2021/04/13 09:18:51;;;;;;;11.28;2.25;;;10.40;99.90;;;;;;1889143;74;21190;-69
2021/04/13 09:21:38;;;;;;;10.53;2.55;;;10.50;99.90;;;;;;1887899;74;21056;-67
2021/04/13 09:24:19;;;;;;;12.50;2.15;;;10.50;99.90;;;;;;1888199;74;21197;-67
2021/04/13 09:27:02;;;;;;;14.70;2.10;;;10.50;99.40;;;;;;1886100;74;21127;-67
2021/04/13 09:29:32;;;;;;;9.40;2.47;;;10.60;99.10;;;;;;1888116;74;21215;-68
2021/04/13 09:32:02;;;;;;;16.75;3.35;;;10.50;99.90;;;;;;1889157;74;21174;-69
2021/04/13 09:34:47;;;;;;;11.88;2.30;;;10.40;99.60;;;;;;1886294;74;21074;-70
2021/04/13 09:37:20;;;;;;;14.65;2.62;;;10.50;99.10;;;;;;1841577;74;21058;-67
2021/04/13 09:40:06;;;;;;;10.20;2.22;;;10.60;99.10;;;;;;1888371;74;21652;-67
2021/04/13 09:42:59;;;;;;;19.45;3.35;;;10.70;99.00;;;;;;1871413;75;21186;-68
2021/04/13 09:45:49;;;;;;;11.50;2.65;;;10.60;99.00;;;;;;1889486;74;21198;-67
2021/04/13 09:48:42;;;;;;;8.55;1.90;;;10.50;99.10;;;;;;1890967;74;21591;-69
2021/04/13 09:51:19;;;;;;;12.98;2.70;;;10.40;99.30;;;;;;1890823;74;21671;-68
2021/04/13 09:54:11;;;;;;;11.65;2.62;;;10.30;99.90;;;;;;1889258;74;21177;-68
2021/04/13 09:56:53;;;;;;;9.58;2.87;;;10.20;99.90;;;;;;1881598;74;21132;-68
2021/04/13 09:59:28;;;;;;;;;;;10.20;99.90;;;;;;1890166;74;21752;-68
2021/04/13 10:02:16;;;;;;;10.72;3.60;;;10.30;99.90;;;;;;1891609;74;20163;-69
2021/04/13 10:04:53;;;;;;;8.80;2.67;;;10.40;99.90;;;;;;1889134;74;21076;-70
2021/04/13 10:07:35;;;;;;;10.85;2.60;;;10.30;99.90;;;;;;1850695;75;21204;-69
2021/04/13 10:10:06;;;;;;;7.37;1.75;;;10.30;99.90;;;;;;1856006;76;21241;-69
2021/04/13 10:12:57;;;;;;;11.65;2.45;;;10.20;99.90;;;;;;1889711;74;21563;-70
2021/04/13 10:15:39;;;;;;;9.73;1.70;;;10.10;99.90;;;;;;1847086;76;21385;-71
2021/04/13 10:18:39;;;;;;;8.93;1.90;;;10.00;99.90;;;;;;1905187;73;21757;-70
2021/04/13 10:21:35;;;;;;;7.97;1.50;;;10.10;99.90;;;;;;1925990;73;21824;-69
2021/04/13 10:24:41;;;;;;;9.00;1.87;;;10.10;99.90;;;;;;1925836;73;21254;-68
2021/04/13 10:27:26;;;;;;;7.12;1.80;;;10.20;99.90;;;;;;1925225;73;21155;-68
2021/04/13 10:30:29;;;;;;;6.53;1.30;;;10.10;99.90;;;;;;1924498;73;21179;-69
2021/04/13 10:33:16;;;;;;;7.17;1.67;;;10.10;99.90;;;;;;1928721;73;21090;-68
2021/04/13 10:36:12;;;;;;;11.57;1.60;;;10.00;99.90;;;;;;1925646;73;21722;-69
2021/04/13 10:39:01;;;;;;;9.48;2.27;;;10.10;99.90;;;;;;1925721;73;21675;-68
2021/04/13 10:41:32;;;;;;;9.48;3.15;;;10.40;99.90;;;;;;1881518;73;21121;-67
2021/04/13 10:44:25;;;;;;;7.20;1.37;;;10.60;99.90;;;;;;1923240;73;21106;-69
2021/04/13 10:47:02;;;;;;;9.05;1.15;;;10.80;99.90;;;;;;1926749;73;21145;-70
2021/04/13 10:49:54;;;;;;;8.45;1.70;;;10.90;99.90;;;;;;1848084;76;21160;-68
2021/04/13 10:52:47;;;;;;;6.08;1.47;;;11.10;99.90;;;;;;1874383;75;21129;-68
2021/04/13 10:55:33;;;;;;;12.95;2.52;;;11.30;99.90;;;;;;1875233;75;21139;-66
2021/04/13 10:58:20;;;;;;;10.30;2.02;;;11.50;99.90;;;;;;1877999;75;21152;-67
2021/04/13 11:01:03;;;;;;;14.90;2.00;;;11.70;99.30;;;;;;1877472;75;21155;-68
2021/04/13 11:03:37;;;;;;;35.28;18.60;;;11.90;99.70;;;;;;1860534;75;21586;-67
2021/04/13 11:06:16;;;;;;;26.15;15.05;;;12.00;98.20;;;;;;1849491;76;21097;-69
2021/04/13 11:09:20;;;;;;;7.87;2.15;;;12.10;98.30;;;;;;1890856;73;21134;-69
2021/04/13 11:12:10;;;;;;;10.58;2.60;;;12.30;96.90;;;;;;1918408;73;21207;-67
2021/04/13 11:14:57;;;;;;;7.95;1.50;;;12.50;97.70;;;;;;1924766;73;21268;-67
2021/04/13 11:17:33;;;;;;;13.68;4.03;;;12.60;95.70;;;;;;1925048;73;21164;-69
2021/04/13 11:20:15;;;;;;;12.10;2.65;;;12.60;95.90;;;;;;1927891;73;21117;-67
2021/04/13 11:23:02;;;;;;;10.45;1.82;;;12.80;95.60;;;;;;1883401;74;21078;-68
2021/04/13 11:25:47;;;;;;;8.25;2.08;;;12.70;93.20;;;;;;1928302;71;21118;-70
2021/04/13 11:28:49;;;;;;;9.13;2.25;;;12.80;92.70;;;;;;1928853;73;21145;-71
2021/04/13 11:31:37;;;;;;;8.28;2.10;;;12.80;91.70;;;;;;1880788;76;21108;-73
2021/04/13 11:34:20;;;;;;;6.80;1.60;;;12.70;92.30;;;;;;1927072;73;21099;-71
2021/04/13 11:36:56;;;;;;;7.42;1.45;;;12.70;92.80;;;;;;1921793;73;21159;-71
2021/04/13 11:39:41;;;;;;;9.60;1.60;;;12.50;92.90;;;;;;1924675;73;21102;-72
2021/04/13 11:42:15;;;;;;;7.60;1.40;;;12.40;94.90;;;;;;1925882;73;21122;-71
2021/04/13 11:44:45;;;;;;;5.28;1.20;;;12.40;95.70;;;;;;1917436;73;21078;-70
2021/04/13 11:47:40;;;;;;;6.83;1.10;;;12.30;95.70;;;;;;1920407;73;21568;-70
2021/04/13 11:50:20;;;;;;;7.83;1.70;;;12.10;95.90;;;;;;1928373;74;21214;-71
2021/04/13 11:52:56;;;;;;;10.13;2.35;;;11.90;97.10;;;;;;1920586;73;21101;-69
2021/04/13 11:55:33;;;;;;;9.60;1.50;;;11.70;96.90;;;;;;1926257;73;22151;-70
2021/04/13 11:58:16;;;;;;;7.97;1.75;;;11.80;98.10;;;;;;1923449;73;21158;-72
2021/04/13 12:00:49;;;;;;;5.85;1.10;;;11.60;98.20;;;;;;1929227;73;21176;-70
2021/04/13 12:03:28;;;;;;;7.92;1.62;;;11.40;99.10;;;;;;1929016;73;21043;-69
2021/04/13 12:06:10;;;;;;;9.15;2.10;;;11.20;99.90;;;;;;1929206;73;21508;-71
2021/04/13 12:08:40;;;;;;;9.08;2.10;;;11.20;99.90;;;;;;1922635;73;21154;-70
2021/04/13 12:11:16;;;;;;;7.35;2.00;;;11.10;99.90;;;;;;1926120;73;21141;-69
2021/04/13 12:13:49;;;;;;;8.45;1.95;;;11.10;99.90;;;;;;1918814;73;21098;-70
2021/04/13 12:16:20;;;;;;;8.23;1.47;;;11.50;99.90;;;;;;1924833;73;21588;-70
2021/04/13 12:19:05;;;;;;;73.62;51.25;;;11.90;99.90;;;;;;1925576;73;21059;-70
2021/04/13 12:21:38;;;;;;;13.20;4.78;;;12.30;99.90;;;;;;1927336;73;21043;-71
2021/04/13 12:24:09;;;;;;;9.35;1.72;;;12.50;99.90;;;;;;1928251;73;21587;-72
2021/04/13 12:26:43;;;;;;;10.68;2.27;;;12.60;98.70;;;;;;1908978;73;21082;-70
2021/04/13 12:29:33;;;;;;;10.55;2.42;;;12.50;95.90;;;;;;1925249;73;21229;-70
2021/04/13 12:32:16;;;;;;;11.63;2.27;;;12.60;96.00;;;;;;1922648;73;21192;-71
2021/04/13 12:34:52;;;;;;;7.87;1.37;;;12.60;95.90;;;;;;1925081;73;21066;-69
2021/04/13 12:37:42;;;;;;;6.37;1.10;;;12.70;96.60;;;;;;1925643;73;21054;-71
2021/04/13 12:40:21;;;;;;;6.72;1.50;;;12.70;97.90;;;;;;1914661;73;21685;-70
2021/04/13 12:42:58;;;;;;;4.55;1.20;;;12.40;99.20;;;;;;1925436;73;21122;-70
2021/04/13 12:45:28;;;;;;;6.95;1.22;;;12.20;99.90;;;;;;1923518;74;21156;-71
2021/04/13 12:48:00;;;;;;;4.58;1.07;;;11.90;99.90;;;;;;1839867;76;21674;-70
2021/04/13 12:50:36;;;;;;;8.55;1.42;;;11.60;99.90;;;;;;1920446;73;21102;-71
2021/04/13 12:53:12;;;;;;;4.92;1.15;;;11.30;99.90;;;;;;1884649;76;21126;-70
2021/04/13 12:55:40;;;;;;;10.10;1.27;;;11.00;99.90;;;;;;1922157;73;21102;-69
2021/04/13 12:58:11;;;;;;;7.12;1.42;;;10.80;99.90;;;;;;1926058;73;21239;-69
2021/04/13 13:00:44;;;;;;;7.45;1.90;;;10.70;99.90;;;;;;1929284;73;21126;-69
2021/04/13 13:03:21;;;;;;;6.03;1.67;;;10.70;99.90;;;;;;1928728;73;21085;-69
2021/04/13 13:05:50;;;;;;;7.33;1.77;;;10.70;99.90;;;;;;1928472;73;21042;-69
2021/04/13 13:08:23;;;;;;;8.73;2.12;;;11.00;99.90;;;;;;1927998;73;21690;-70
2021/04/13 13:10:58;;;;;;;7.75;1.87;;;11.70;99.90;;;;;;1929230;73;21528;-70
2021/04/13 13:13:31;;;;;;;12.30;2.37;;;12.30;99.90;;;;;;1925958;73;21153;-70
2021/04/13 13:16:01;;;;;;;11.85;2.50;;;12.80;99.90;;;;;;1882764;74;21612;-70
2021/04/13 13:18:35;;;;;;;10.00;2.62;;;13.40;99.90;;;;;;1882049;74;21129;-70
2021/04/13 13:21:11;;;;;;;7.00;2.10;;;13.80;99.10;;;;;;1886076;74;21103;-71
2021/04/13 13:23:42;;;;;;;6.58;2.08;;;14.00;98.60;;;;;;1883777;76;21095;-69
2021/04/13 13:26:18;;;;;;;12.93;1.90;;;13.90;96.80;;;;;;1889626;74;21090;-70
2021/04/13 13:28:45;;;;;;;10.18;1.90;;;13.60;98.10;;;;;;1882982;74;21299;-70
2021/04/13 13:31:15;;;;;;;8.85;2.25;;;13.40;98.40;;;;;;1880199;74;22287;-70
2021/04/13 13:33:45;;;;;;;10.10;2.40;;;13.10;98.10;;;;;;1881347;74;21576;-69
2021/04/13 13:36:15;;;;;;;11.10;2.55;;;13.10;98.00;;;;;;1885555;74;21098;-70